createdAt,value
2022-12-17T00:01:40.555Z,27.67
2022-12-17T00:04:25.107Z,34.70
2022-12-17T00:07:09.824Z,62.33
2022-12-17T00:09:54.085Z,50.00
2022-12-17T00:12:40.771Z,40.33
2022-12-17T00:15:25.687Z,31.90
2022-12-17T00:18:10.163Z,57.70
2022-12-17T00:20:54.639Z,50.77
2022-12-17T00:23:41.028Z,55.77
2022-12-17T00:26:26.289Z,45.20
2022-12-17T00:29:11.376Z,78.03
2022-12-17T00:32:12.600Z,40.20
2022-12-17T00:34:57.335Z,60.63
2022-12-17T00:37:41.872Z,70.40
2022-12-17T00:40:27.340Z,46.13
2022-12-17T00:43:26.870Z,42.60
2022-12-17T00:46:11.634Z,43.33
2022-12-17T00:48:56.620Z,47.90
2022-12-17T00:51:41.493Z,44.90
2022-12-17T00:54:26.501Z,44.00
2022-12-17T00:57:10.765Z,32.57
2022-12-17T00:59:55.847Z,64.07
2022-12-17T01:02:40.706Z,39.63
2022-12-17T01:05:25.988Z,44.23
2022-12-17T01:08:10.304Z,28.93
2022-12-17T01:10:55.150Z,12.43
2022-12-17T01:13:40.908Z,29.70
2022-12-17T01:16:31.034Z,30.00
2022-12-17T01:19:16.788Z,26.00
2022-12-17T01:22:02.871Z,35.60
2022-12-17T01:24:47.621Z,34.00
2022-12-17T01:27:32.520Z,23.17
2022-12-17T01:30:17.184Z,17.53
2022-12-17T01:33:01.442Z,17.57
2022-12-17T01:35:46.365Z,16.93
2022-12-17T01:38:33.206Z,15.33
2022-12-17T01:41:17.643Z,15.10
2022-12-17T01:44:01.858Z,16.43
2022-12-17T01:46:49.893Z,20.70
2022-12-17T01:49:35.297Z,10.80
2022-12-17T01:52:20.383Z,14.27
2022-12-17T01:55:04.911Z,21.23
2022-12-17T01:57:49.649Z,21.00
2022-12-17T02:00:35.390Z,13.30
2022-12-17T02:03:20.406Z,19.90
2022-12-17T02:06:29.274Z,15.53
2022-12-17T02:09:30.493Z,18.20
2022-12-17T02:12:35.110Z,16.83
2022-12-17T02:15:49.300Z,16.43
2022-12-17T02:18:38.937Z,10.17
2022-12-17T02:21:24.253Z,21.33
2022-12-17T02:24:37.485Z,18.40
2022-12-17T02:27:25.784Z,19.50
2022-12-17T02:30:22.672Z,20.43
2022-12-17T02:33:07.564Z,18.93
2022-12-17T02:36:30.040Z,17.33
2022-12-17T02:39:14.564Z,19.40
2022-12-17T02:42:04.016Z,15.90
2022-12-17T02:44:50.002Z,16.30
2022-12-17T02:47:35.689Z,21.43
2022-12-17T02:50:20.016Z,21.50
2022-12-17T02:53:05.898Z,16.00
2022-12-17T02:55:51.717Z,16.00
2022-12-17T02:58:36.108Z,17.13
2022-12-17T03:01:20.692Z,15.97
2022-12-17T03:04:05.494Z,19.90
2022-12-17T03:06:49.866Z,14.30
2022-12-17T03:09:34.406Z,15.97
2022-12-17T03:12:19.359Z,13.13
2022-12-17T03:15:03.857Z,15.43
2022-12-17T03:17:48.700Z,16.13
2022-12-17T03:20:33.125Z,15.80
2022-12-17T03:23:25.608Z,17.00
2022-12-17T03:26:10.642Z,14.60
2022-12-17T03:28:55.409Z,15.23
2022-12-17T03:31:40.386Z,15.27
2022-12-17T03:34:24.999Z,17.50
2022-12-17T03:37:10.534Z,14.80
2022-12-17T03:39:54.833Z,15.30
2022-12-17T03:42:39.124Z,10.10
2022-12-17T03:45:24.284Z,13.40
2022-12-17T03:48:08.710Z,15.97
2022-12-17T03:50:53.046Z,12.37
2022-12-17T03:53:37.864Z,16.93
2022-12-17T03:56:23.000Z,14.60
2022-12-17T03:59:07.263Z,18.37
2022-12-17T04:01:51.694Z,16.60
2022-12-17T04:04:36.344Z,15.10
2022-12-17T04:07:20.878Z,16.30
2022-12-17T04:10:08.165Z,16.03
2022-12-17T04:12:52.536Z,16.00
2022-12-17T04:15:56.737Z,15.63
2022-12-17T04:18:41.207Z,14.00
2022-12-17T04:21:25.695Z,13.03
2022-12-17T04:24:10.579Z,14.77
2022-12-17T04:26:55.062Z,17.63
2022-12-17T04:29:41.507Z,12.83
2022-12-17T04:32:25.988Z,16.80
2022-12-17T04:35:10.352Z,16.70
2022-12-17T04:37:54.895Z,18.10
2022-12-17T04:40:39.844Z,20.10
2022-12-17T04:43:26.189Z,14.87
2022-12-17T04:46:10.656Z,12.93
2022-12-17T04:48:55.206Z,16.57
2022-12-17T04:51:40.074Z,15.50
2022-12-17T04:54:24.946Z,16.87
2022-12-17T04:57:09.338Z,20.67
2022-12-17T04:59:53.635Z,17.50
2022-12-17T05:02:42.537Z,24.13
2022-12-17T05:05:28.015Z,31.53
2022-12-17T05:08:13.927Z,19.97
2022-12-17T05:10:58.848Z,18.17
2022-12-17T05:13:43.792Z,17.27
2022-12-17T05:16:28.774Z,14.80
2022-12-17T05:19:13.592Z,16.30
2022-12-17T05:21:58.654Z,19.60
2022-12-17T05:24:42.971Z,16.90
2022-12-17T05:27:27.395Z,20.13
2022-12-17T05:30:11.684Z,17.70
2022-12-17T05:32:56.508Z,19.07
2022-12-17T05:35:41.347Z,17.10
2022-12-17T05:38:35.302Z,18.50
2022-12-17T05:41:19.806Z,14.40
2022-12-17T05:44:04.278Z,14.37
2022-12-17T05:46:48.969Z,14.73
2022-12-17T05:49:33.621Z,11.47
2022-12-17T05:52:18.437Z,11.97
2022-12-17T05:55:02.904Z,12.07
2022-12-17T05:57:51.735Z,11.33
2022-12-17T06:00:39.226Z,11.00
2022-12-17T06:03:23.643Z,13.67
2022-12-17T06:06:14.978Z,14.97
2022-12-17T06:08:59.982Z,13.10
2022-12-17T06:11:44.763Z,12.37
2022-12-17T06:14:29.073Z,14.77
2022-12-17T06:17:13.441Z,18.10
2022-12-17T06:19:57.907Z,14.73
2022-12-17T06:22:42.771Z,15.20
2022-12-17T06:25:27.212Z,14.70
2022-12-17T06:28:16.747Z,14.40
2022-12-17T06:31:01.093Z,17.83
2022-12-17T06:33:45.857Z,17.23
2022-12-17T06:36:30.199Z,22.17
2022-12-17T06:39:14.755Z,14.73
2022-12-17T06:42:04.324Z,15.37
2022-12-17T06:44:50.007Z,23.80
2022-12-17T06:47:34.901Z,31.63
2022-12-17T06:50:19.288Z,14.50
2022-12-17T06:53:03.709Z,18.60
2022-12-17T06:55:48.080Z,20.47
2022-12-17T06:58:32.521Z,15.10
2022-12-17T07:01:17.130Z,18.53
2022-12-17T07:04:01.777Z,21.70
2022-12-17T07:06:46.161Z,22.30
2022-12-17T07:09:30.381Z,18.60
2022-12-17T07:12:14.845Z,18.63
2022-12-17T07:14:59.580Z,21.43
2022-12-17T07:17:43.970Z,10.70
2022-12-17T07:20:28.788Z,16.63
2022-12-17T07:23:14.322Z,19.80
2022-12-17T07:25:59.622Z,19.80
2022-12-17T07:28:44.692Z,15.03
2022-12-17T07:31:29.212Z,18.50
2022-12-17T07:34:13.935Z,17.33
2022-12-17T07:37:02.879Z,17.47
2022-12-17T07:39:47.249Z,16.87
2022-12-17T07:42:31.804Z,16.87
2022-12-17T07:45:16.267Z,13.53
2022-12-17T07:48:00.707Z,14.97
2022-12-17T07:50:45.297Z,13.50
2022-12-17T07:53:30.190Z,14.80
2022-12-17T07:56:14.928Z,20.10
2022-12-17T07:58:59.399Z,20.10
2022-12-17T08:01:44.245Z,16.47
2022-12-17T08:04:28.876Z,14.27
2022-12-17T08:07:14.266Z,16.93
2022-12-17T08:09:58.982Z,17.63
2022-12-17T08:12:43.270Z,14.23
2022-12-17T08:15:28.098Z,22.43
2022-12-17T08:18:22.916Z,18.30
2022-12-17T08:21:10.856Z,18.87
2022-12-17T08:23:55.251Z,16.03
2022-12-17T08:26:44.324Z,15.30
2022-12-17T08:29:39.633Z,15.50
2022-12-17T08:32:24.101Z,14.90
2022-12-17T08:35:08.558Z,14.83
2022-12-17T08:37:54.423Z,14.60
2022-12-17T08:40:38.792Z,12.73
2022-12-17T08:43:23.731Z,13.83
2022-12-17T08:46:09.685Z,14.30
2022-12-17T08:48:54.978Z,15.47
2022-12-17T08:51:40.656Z,10.57
2022-12-17T08:54:25.051Z,17.80
2022-12-17T08:57:09.521Z,13.13
2022-12-17T08:59:53.951Z,12.80
2022-12-17T09:02:39.018Z,14.23
2022-12-17T09:05:24.219Z,18.13
2022-12-17T09:08:23.094Z,12.23
2022-12-17T09:11:07.969Z,14.13
2022-12-17T09:13:53.039Z,13.73
2022-12-17T09:16:38.076Z,13.63
2022-12-17T09:19:23.347Z,11.13
2022-12-17T09:22:07.712Z,14.50
2022-12-17T09:24:52.134Z,16.63
2022-12-17T09:27:36.525Z,11.83
2022-12-17T09:30:22.389Z,20.30
2022-12-17T09:33:06.907Z,15.60
2022-12-17T09:35:51.300Z,14.63
2022-12-17T09:38:36.505Z,12.27
2022-12-17T09:41:38.443Z,17.40
2022-12-17T09:44:32.642Z,20.50
2022-12-17T09:47:25.193Z,17.50
2022-12-17T09:50:10.479Z,23.30
2022-12-17T09:52:57.528Z,17.57
2022-12-17T09:55:46.351Z,16.97
2022-12-17T09:58:40.949Z,14.97
2022-12-17T10:01:36.461Z,14.50
2022-12-17T10:04:31.893Z,16.00
2022-12-17T10:07:16.601Z,15.80
2022-12-17T10:10:02.468Z,14.80
2022-12-17T10:12:47.114Z,25.73
2022-12-17T10:15:33.289Z,18.70
2022-12-17T10:18:29.690Z,16.80
2022-12-17T10:21:20.275Z,16.87
2022-12-17T10:24:04.931Z,15.17
2022-12-17T10:26:51.764Z,14.30
2022-12-17T10:29:47.772Z,17.60
2022-12-17T10:32:32.692Z,17.67
2022-12-17T10:35:18.092Z,19.73
2022-12-17T10:38:02.779Z,17.07
2022-12-17T10:40:50.318Z,15.77
2022-12-17T10:43:46.062Z,17.97
2022-12-17T10:46:40.516Z,16.23
2022-12-17T10:49:42.842Z,16.77
2022-12-17T10:52:33.516Z,19.53
2022-12-17T10:55:23.007Z,19.80
2022-12-17T10:58:09.024Z,18.40
2022-12-17T11:01:02.627Z,20.00
2022-12-17T11:04:07.293Z,22.07
2022-12-17T11:06:54.413Z,21.50
2022-12-17T11:10:08.951Z,17.90
2022-12-17T11:13:00.288Z,50.87
2022-12-17T11:15:52.019Z,46.80
2022-12-17T11:18:47.899Z,24.00
2022-12-17T11:21:42.645Z,23.03
2022-12-17T11:24:42.481Z,17.17
2022-12-17T11:27:30.149Z,21.10
2022-12-17T11:30:14.736Z,18.33
2022-12-17T11:33:06.017Z,27.30
2022-12-17T11:36:05.068Z,16.97
2022-12-17T11:38:57.604Z,18.93
2022-12-17T11:41:57.297Z,17.10
2022-12-17T11:45:11.934Z,19.67
2022-12-17T11:48:10.026Z,20.30
2022-12-17T11:51:08.368Z,20.27
2022-12-17T11:54:14.640Z,25.47
2022-12-17T11:57:38.429Z,19.53
2022-12-17T12:00:40.249Z,20.13
2022-12-17T12:03:58.635Z,15.80
2022-12-17T12:06:51.367Z,20.53
2022-12-17T12:09:46.258Z,18.07
2022-12-17T12:13:06.535Z,18.03
2022-12-17T12:16:00.715Z,17.53
2022-12-17T12:18:52.904Z,24.27
2022-12-17T12:21:53.725Z,17.87
2022-12-17T12:24:54.536Z,12.50
2022-12-17T12:27:48.360Z,21.77
2022-12-17T12:30:35.652Z,19.20
2022-12-17T12:33:29.359Z,16.20
2022-12-17T12:36:17.209Z,16.90
2022-12-17T12:39:02.459Z,25.10
2022-12-17T12:42:12.113Z,17.30
2022-12-17T12:45:20.129Z,20.43
2022-12-17T12:48:24.874Z,18.87
2022-12-17T12:51:21.708Z,18.00
2022-12-17T12:54:20.001Z,21.83
2022-12-17T12:57:05.000Z,22.87
2022-12-17T12:59:52.884Z,17.67
2022-12-17T13:02:49.915Z,17.37
2022-12-17T13:05:34.086Z,18.40
2022-12-17T13:08:04.849Z,17.60
2022-12-17T13:10:32.070Z,17.00
2022-12-17T13:13:25.072Z,26.63
2022-12-17T13:15:55.217Z,17.93
2022-12-17T13:18:31.624Z,22.37
2022-12-17T13:21:02.645Z,16.93
2022-12-17T13:23:30.268Z,15.03
2022-12-17T13:26:14.680Z,21.03
2022-12-17T13:28:41.250Z,15.93
2022-12-17T13:31:17.416Z,14.70
2022-12-17T13:34:25.311Z,16.53
2022-12-17T13:37:24.892Z,19.33
2022-12-17T13:40:03.561Z,20.97
2022-12-17T13:42:32.033Z,15.00
2022-12-17T13:44:58.383Z,15.83
2022-12-17T13:47:27.182Z,13.67
2022-12-17T13:50:31.654Z,15.10
2022-12-17T13:52:41.816Z,12.13
2022-12-17T13:55:13.243Z,24.47
2022-12-17T13:57:45.097Z,20.23
2022-12-17T14:00:25.531Z,15.27
2022-12-17T14:02:52.841Z,17.23
2022-12-17T14:05:37.951Z,17.77
2022-12-17T14:08:04.770Z,18.73
2022-12-17T14:10:30.961Z,16.33
2022-12-17T14:13:13.125Z,22.47
2022-12-17T14:15:47.997Z,19.03
2022-12-17T14:18:15.729Z,13.50
2022-12-17T14:20:41.875Z,18.77
2022-12-17T14:23:14.989Z,18.23
2022-12-17T14:25:42.844Z,17.77
2022-12-17T14:28:29.977Z,15.20
2022-12-17T14:31:31.609Z,13.30
2022-12-17T14:34:06.502Z,17.63
2022-12-17T14:36:39.877Z,16.30
2022-12-17T14:39:17.276Z,16.50
2022-12-17T14:42:01.982Z,16.00
2022-12-17T14:44:29.483Z,16.00
2022-12-17T14:47:21.587Z,12.70
2022-12-17T14:49:56.762Z,14.60
2022-12-17T14:52:31.806Z,16.93
2022-12-17T14:54:58.046Z,16.10
2022-12-17T14:57:24.088Z,16.87
2022-12-17T14:59:51.698Z,17.80
2022-12-17T15:02:26.051Z,14.63
2022-12-17T15:04:56.302Z,16.83
2022-12-17T15:07:24.793Z,18.37
2022-12-17T15:09:52.109Z,17.87
2022-12-17T15:12:19.668Z,16.33
2022-12-17T15:14:46.003Z,22.30
2022-12-17T15:17:12.473Z,17.50
2022-12-17T15:19:38.475Z,19.73
2022-12-17T15:22:04.745Z,20.27
2022-12-17T15:24:31.140Z,16.73
2022-12-17T15:26:57.203Z,19.90
2022-12-17T15:29:26.140Z,16.27
2022-12-17T15:31:52.209Z,22.47
2022-12-17T15:34:18.306Z,24.20
2022-12-17T15:36:44.365Z,14.93
2022-12-17T15:39:10.485Z,16.63
2022-12-17T15:41:55.184Z,14.33
2022-12-17T15:44:21.293Z,14.13
2022-12-17T15:46:47.402Z,15.93
2022-12-17T15:49:13.469Z,15.47
2022-12-17T15:51:39.499Z,13.10
2022-12-17T15:54:05.568Z,7.10
2022-12-17T15:56:31.710Z,20.20
2022-12-17T15:58:58.368Z,15.83
2022-12-17T16:01:24.626Z,17.37
2022-12-17T16:03:50.724Z,14.43
2022-12-17T16:06:16.841Z,18.13
2022-12-17T16:08:42.925Z,14.83
2022-12-17T16:11:10.555Z,20.17
2022-12-17T16:13:37.257Z,20.80
2022-12-17T16:16:04.607Z,18.03
2022-12-17T16:18:31.186Z,16.43
2022-12-17T16:21:05.920Z,17.00
2022-12-17T16:23:32.036Z,18.10
2022-12-17T16:25:59.368Z,19.43
2022-12-17T16:28:26.856Z,22.97
2022-12-17T16:31:06.058Z,16.17
2022-12-17T16:33:35.710Z,24.73
2022-12-17T16:36:03.330Z,17.83
2022-12-17T16:38:29.490Z,17.70
2022-12-17T16:41:00.627Z,18.67
2022-12-17T16:43:27.367Z,24.77
2022-12-17T16:45:54.006Z,19.43
2022-12-17T16:48:21.370Z,20.10
2022-12-17T16:50:48.153Z,16.83
2022-12-17T16:53:14.771Z,17.03
2022-12-17T16:55:48.163Z,21.53
2022-12-17T16:58:16.276Z,15.57
2022-12-17T17:00:42.320Z,19.43
2022-12-17T17:03:08.665Z,20.27
2022-12-17T17:05:37.629Z,17.63
2022-12-17T17:08:04.111Z,18.60
2022-12-17T17:10:30.630Z,20.30
2022-12-17T17:12:56.919Z,15.87
2022-12-17T17:15:23.293Z,17.57
2022-12-17T17:17:54.730Z,17.43
2022-12-17T17:20:22.660Z,20.27
2022-12-17T17:22:48.777Z,23.30
2022-12-17T17:25:14.911Z,24.53
2022-12-17T17:27:41.077Z,23.33
2022-12-17T17:30:07.715Z,20.27
2022-12-17T17:32:33.843Z,29.87
2022-12-17T17:34:59.942Z,28.27
2022-12-17T17:37:27.183Z,36.47
2022-12-17T17:39:53.264Z,34.90
2022-12-17T17:42:19.316Z,35.90
2022-12-17T17:44:45.371Z,43.23
2022-12-17T17:47:11.515Z,43.30
2022-12-17T17:49:37.689Z,43.30
2022-12-17T17:52:11.857Z,36.90
2022-12-17T17:54:41.799Z,32.60
2022-12-17T17:57:08.697Z,24.53
2022-12-17T17:59:34.828Z,27.57
2022-12-17T18:02:02.046Z,31.73
2022-12-17T18:04:28.312Z,25.50
2022-12-17T18:09:40.456Z,26.17
2022-12-17T18:12:25.200Z,29.97
2022-12-17T18:15:13.237Z,29.83
2022-12-17T18:17:38.533Z,24.80
2022-12-17T18:20:05.334Z,26.97
2022-12-17T18:22:31.417Z,32.10
2022-12-17T18:24:57.481Z,25.43
2022-12-17T18:27:23.573Z,36.00
2022-12-17T18:29:49.640Z,26.00
2022-12-17T18:32:15.743Z,24.13
2022-12-17T18:34:41.904Z,27.30
2022-12-17T18:37:08.063Z,31.90
2022-12-17T18:39:34.305Z,30.50
2022-12-17T18:42:18.812Z,30.20
2022-12-17T18:44:44.873Z,27.60
2022-12-17T18:47:11.141Z,29.77
2022-12-17T18:49:38.296Z,27.27
2022-12-17T18:52:04.541Z,32.90
2022-12-17T18:54:30.813Z,29.83
2022-12-17T18:57:01.719Z,25.53
2022-12-17T18:59:29.505Z,29.70
2022-12-17T19:01:55.985Z,25.67
2022-12-17T19:04:22.958Z,24.07
2022-12-17T19:06:50.724Z,24.70
2022-12-17T19:09:19.501Z,26.43
2022-12-17T19:11:45.701Z,26.80
2022-12-17T19:14:11.876Z,24.87
2022-12-17T19:16:39.207Z,23.83
2022-12-17T19:19:05.389Z,22.30
2022-12-17T19:21:33.084Z,27.73
2022-12-17T19:24:03.249Z,19.70
2022-12-17T19:26:29.524Z,19.10
2022-12-17T19:28:56.753Z,21.20
2022-12-17T19:31:24.672Z,22.50
2022-12-17T19:33:56.165Z,15.80
2022-12-17T19:36:28.056Z,21.33
2022-12-17T19:38:56.467Z,25.93
2022-12-17T19:41:22.921Z,25.37
2022-12-17T19:43:54.262Z,23.37
2022-12-17T19:46:20.508Z,27.33
2022-12-17T19:48:48.913Z,27.07
2022-12-17T19:51:18.507Z,24.80
2022-12-17T19:53:45.233Z,18.37
2022-12-17T19:56:28.553Z,20.90
2022-12-17T19:58:57.072Z,27.10
2022-12-17T20:01:25.483Z,24.70
2022-12-17T20:03:53.028Z,20.77
2022-12-17T20:06:22.167Z,27.20
2022-12-17T20:08:48.541Z,20.33
2022-12-17T20:11:33.500Z,23.50
2022-12-17T20:14:07.016Z,28.70
2022-12-17T20:16:38.560Z,27.30
2022-12-17T20:19:07.410Z,27.50
2022-12-17T20:21:33.592Z,25.67
2022-12-17T20:23:59.704Z,27.17
2022-12-17T20:26:26.146Z,24.67
2022-12-17T20:28:52.295Z,25.47
2022-12-17T20:31:18.433Z,25.23
2022-12-17T20:33:44.520Z,24.67
2022-12-17T20:36:13.152Z,25.97
2022-12-17T20:38:39.721Z,23.33
2022-12-17T20:41:10.366Z,21.33
2022-12-17T20:43:37.212Z,26.00
2022-12-17T20:46:03.459Z,25.07
2022-12-17T20:48:29.624Z,22.10
2022-12-17T20:50:55.704Z,22.73
2022-12-17T20:53:21.850Z,23.57
2022-12-17T20:55:47.922Z,18.20
2022-12-17T20:58:14.947Z,22.10
2022-12-17T21:00:41.022Z,23.30
2022-12-17T21:03:07.285Z,30.83
2022-12-17T21:05:34.963Z,22.43
2022-12-17T21:08:00.986Z,28.63
2022-12-17T21:10:27.028Z,24.63
2022-12-17T21:13:11.744Z,24.40
2022-12-17T21:15:37.813Z,35.40
2022-12-17T21:18:03.931Z,23.07
2022-12-17T21:20:29.960Z,29.53
2022-12-17T21:22:56.277Z,28.00
2022-12-17T21:25:22.344Z,24.63
2022-12-17T21:27:48.395Z,21.80
2022-12-17T21:30:17.637Z,20.77
2022-12-17T21:32:43.674Z,22.00
2022-12-17T21:35:10.698Z,20.57
2022-12-17T21:37:36.816Z,23.47
2022-12-17T21:40:03.179Z,21.00
2022-12-17T21:42:47.903Z,24.00
2022-12-17T21:45:14.818Z,17.03
2022-12-17T21:47:41.016Z,21.90
2022-12-17T21:50:07.308Z,20.67
2022-12-17T21:52:33.351Z,22.53
2022-12-17T21:54:59.408Z,18.83
2022-12-17T21:57:25.492Z,21.97
2022-12-17T21:59:51.610Z,23.17
2022-12-17T22:02:19.038Z,20.60
2022-12-17T22:04:45.418Z,22.67
2022-12-17T22:07:11.586Z,21.03
2022-12-17T22:10:06.267Z,23.27
2022-12-17T22:12:56.407Z,23.30
2022-12-17T22:15:22.942Z,26.93
2022-12-17T22:17:54.380Z,21.53
2022-12-17T22:20:22.112Z,19.60
2022-12-17T22:22:48.388Z,16.47
2022-12-17T22:25:14.921Z,19.07
2022-12-17T22:27:41.587Z,21.97
2022-12-17T22:30:31.090Z,17.03
2022-12-17T22:33:00.136Z,16.97
2022-12-17T22:36:26.754Z,25.50
2022-12-17T22:41:08.593Z,19.77
2022-12-17T22:44:35.976Z,17.83
2022-12-17T22:44:49.262Z,15.87
2022-12-17T22:46:39.113Z,18.33
2022-12-17T22:49:05.198Z,16.87
2022-12-17T22:51:39.169Z,21.07
2022-12-17T22:54:06.688Z,20.97
2022-12-17T22:57:20.473Z,20.10
2022-12-17T22:59:20.968Z,18.80
2022-12-17T23:01:47.095Z,19.30
2022-12-17T23:04:14.921Z,22.43
2022-12-17T23:06:44.534Z,17.00
2022-12-17T23:09:14.573Z,18.80
2022-12-17T23:11:40.655Z,17.00
2022-12-17T23:14:07.547Z,18.17
2022-12-17T23:16:33.926Z,17.30
2022-12-17T23:19:00.823Z,21.73
2022-12-17T23:21:27.207Z,18.50
2022-12-17T23:23:54.657Z,18.33
2022-12-17T23:26:26.506Z,19.17
2022-12-17T23:28:57.732Z,18.80
2022-12-17T23:31:25.755Z,16.73
2022-12-17T23:33:51.893Z,19.27
2022-12-17T23:36:21.455Z,17.20
2022-12-17T23:38:48.607Z,19.17
2022-12-17T23:41:20.539Z,17.50
2022-12-17T23:43:47.023Z,15.60
2022-12-17T23:46:13.276Z,15.03
2022-12-17T23:48:45.403Z,22.10
2022-12-17T23:51:14.683Z,15.53
2022-12-17T23:53:42.007Z,21.93
2022-12-17T23:56:14.385Z,15.20
2022-12-17T23:58:41.960Z,16.37
